sensor_id;sensor_type;location;lat;lon;timestamp;P1;durP1;ratioP1;P2;durP2;ratioP2
20241;SDS011;10279;46.388;8.116;2023-05-07T00:00:35;2.40;;;1.00;;
20241;SDS011;10279;46.388;8.116;2023-05-07T00:03:03;0.80;;;0.80;;
20241;SDS011;10279;46.388;8.116;2023-05-07T00:05:30;2.10;;;1.10;;
20241;SDS011;10279;46.388;8.116;2023-05-07T00:07:58;1.83;;;1.00;;
20241;SDS011;10279;46.388;8.116;2023-05-07T00:10:25;0.70;;;0.70;;
20241;SDS011;10279;46.388;8.116;2023-05-07T00:12:53;0.83;;;0.80;;
20241;SDS011;10279;46.388;8.116;2023-05-07T00:15:21;1.43;;;0.90;;
20241;SDS011;10279;46.388;8.116;2023-05-07T00:17:48;1.10;;;0.83;;
20241;SDS011;10279;46.388;8.116;2023-05-07T00:20:16;1.00;;;0.80;;
20241;SDS011;10279;46.388;8.116;2023-05-07T00:22:43;1.27;;;0.80;;
20241;SDS011;10279;46.388;8.116;2023-05-07T00:25:11;0.80;;;0.67;;
20241;SDS011;10279;46.388;8.116;2023-05-07T00:27:38;0.80;;;0.80;;
20241;SDS011;10279;46.388;8.116;2023-05-07T00:30:06;1.63;;;0.80;;
20241;SDS011;10279;46.388;8.116;2023-05-07T00:32:34;0.97;;;0.90;;
20241;SDS011;10279;46.388;8.116;2023-05-07T00:35:03;1.80;;;0.90;;
20241;SDS011;10279;46.388;8.116;2023-05-07T00:37:31;2.80;;;1.00;;
20241;SDS011;10279;46.388;8.116;2023-05-07T00:39:58;2.07;;;0.87;;
20241;SDS011;10279;46.388;8.116;2023-05-07T00:42:26;2.03;;;1.00;;
20241;SDS011;10279;46.388;8.116;2023-05-07T00:44:54;1.10;;;1.00;;
20241;SDS011;10279;46.388;8.116;2023-05-07T00:47:21;1.93;;;0.87;;
20241;SDS011;10279;46.388;8.116;2023-05-07T00:49:49;0.80;;;0.80;;
20241;SDS011;10279;46.388;8.116;2023-05-07T00:52:16;3.37;;;1.17;;
20241;SDS011;10279;46.388;8.116;2023-05-07T00:54:44;2.30;;;1.17;;
20241;SDS011;10279;46.388;8.116;2023-05-07T00:57:12;1.03;;;0.93;;
20241;SDS011;10279;46.388;8.116;2023-05-07T00:59:39;0.90;;;0.70;;
20241;SDS011;10279;46.388;8.116;2023-05-07T01:02:07;1.67;;;0.80;;
20241;SDS011;10279;46.388;8.116;2023-05-07T01:04:35;2.07;;;1.10;;
20241;SDS011;10279;46.388;8.116;2023-05-07T01:07:03;1.80;;;1.10;;
20241;SDS011;10279;46.388;8.116;2023-05-07T01:09:31;1.60;;;0.80;;
20241;SDS011;10279;46.388;8.116;2023-05-07T01:12:01;0.97;;;0.70;;
20241;SDS011;10279;46.388;8.116;2023-05-07T01:14:30;1.33;;;0.97;;
20241;SDS011;10279;46.388;8.116;2023-05-07T01:16:59;1.43;;;0.83;;
20241;SDS011;10279;46.388;8.116;2023-05-07T01:19:28;0.80;;;0.80;;
20241;SDS011;10279;46.388;8.116;2023-05-07T01:21:58;1.47;;;0.87;;
20241;SDS011;10279;46.388;8.116;2023-05-07T01:24:30;1.93;;;0.83;;
20241;SDS011;10279;46.388;8.116;2023-05-07T01:26:57;1.00;;;0.80;;
20241;SDS011;10279;46.388;8.116;2023-05-07T01:29:25;0.90;;;0.67;;
20241;SDS011;10279;46.388;8.116;2023-05-07T01:31:52;1.57;;;1.03;;
20241;SDS011;10279;46.388;8.116;2023-05-07T01:34:20;1.20;;;0.80;;
20241;SDS011;10279;46.388;8.116;2023-05-07T01:36:48;1.80;;;0.90;;
20241;SDS011;10279;46.388;8.116;2023-05-07T01:39:16;1.33;;;1.23;;
20241;SDS011;10279;46.388;8.116;2023-05-07T01:41:44;0.80;;;0.77;;
20241;SDS011;10279;46.388;8.116;2023-05-07T01:44:12;2.10;;;0.97;;
20241;SDS011;10279;46.388;8.116;2023-05-07T01:46:40;1.87;;;0.90;;
20241;SDS011;10279;46.388;8.116;2023-05-07T01:49:08;1.03;;;0.93;;
20241;SDS011;10279;46.388;8.116;2023-05-07T01:51:35;0.77;;;0.77;;
20241;SDS011;10279;46.388;8.116;2023-05-07T01:54:03;1.17;;;1.00;;
20241;SDS011;10279;46.388;8.116;2023-05-07T01:56:31;1.47;;;0.90;;
20241;SDS011;10279;46.388;8.116;2023-05-07T01:59:01;1.13;;;0.97;;
20241;SDS011;10279;46.388;8.116;2023-05-07T02:01:28;1.20;;;0.83;;
20241;SDS011;10279;46.388;8.116;2023-05-07T02:03:56;1.43;;;0.70;;
20241;SDS011;10279;46.388;8.116;2023-05-07T02:06:24;2.50;;;0.90;;
20241;SDS011;10279;46.388;8.116;2023-05-07T02:08:51;0.80;;;0.80;;
20241;SDS011;10279;46.388;8.116;2023-05-07T02:11:19;1.80;;;0.80;;
20241;SDS011;10279;46.388;8.116;2023-05-07T02:13:46;1.70;;;1.03;;
20241;SDS011;10279;46.388;8.116;2023-05-07T02:16:14;1.13;;;0.87;;
20241;SDS011;10279;46.388;8.116;2023-05-07T02:18:41;1.87;;;1.10;;
20241;SDS011;10279;46.388;8.116;2023-05-07T02:21:09;1.00;;;0.87;;
20241;SDS011;10279;46.388;8.116;2023-05-07T02:23:36;1.13;;;1.00;;
20241;SDS011;10279;46.388;8.116;2023-05-07T02:26:04;1.23;;;0.90;;
20241;SDS011;10279;46.388;8.116;2023-05-07T02:28:31;2.30;;;1.23;;
20241;SDS011;10279;46.388;8.116;2023-05-07T02:31:03;2.37;;;1.00;;
20241;SDS011;10279;46.388;8.116;2023-05-07T02:33:31;4.00;;;0.97;;
20241;SDS011;10279;46.388;8.116;2023-05-07T02:36:10;1.20;;;1.10;;
20241;SDS011;10279;46.388;8.116;2023-05-07T02:38:38;1.90;;;0.90;;
20241;SDS011;10279;46.388;8.116;2023-05-07T02:41:05;1.60;;;0.90;;
20241;SDS011;10279;46.388;8.116;2023-05-07T02:43:33;1.50;;;0.93;;
20241;SDS011;10279;46.388;8.116;2023-05-07T02:46:04;0.83;;;0.77;;
20241;SDS011;10279;46.388;8.116;2023-05-07T02:48:32;1.17;;;0.80;;
20241;SDS011;10279;46.388;8.116;2023-05-07T02:51:00;1.57;;;0.80;;
20241;SDS011;10279;46.388;8.116;2023-05-07T02:53:27;1.13;;;0.93;;
20241;SDS011;10279;46.388;8.116;2023-05-07T02:55:56;1.93;;;0.87;;
20241;SDS011;10279;46.388;8.116;2023-05-07T02:58:24;1.60;;;0.93;;
20241;SDS011;10279;46.388;8.116;2023-05-07T03:00:51;1.17;;;1.00;;
20241;SDS011;10279;46.388;8.116;2023-05-07T03:03:21;2.30;;;0.97;;
20241;SDS011;10279;46.388;8.116;2023-05-07T03:05:48;2.97;;;1.10;;
20241;SDS011;10279;46.388;8.116;2023-05-07T03:08:16;1.30;;;1.00;;
20241;SDS011;10279;46.388;8.116;2023-05-07T03:10:44;1.43;;;0.90;;
20241;SDS011;10279;46.388;8.116;2023-05-07T03:13:11;2.10;;;0.90;;
20241;SDS011;10279;46.388;8.116;2023-05-07T03:15:38;2.53;;;1.47;;
20241;SDS011;10279;46.388;8.116;2023-05-07T03:18:06;0.83;;;0.83;;
20241;SDS011;10279;46.388;8.116;2023-05-07T03:20:34;2.00;;;1.20;;
20241;SDS011;10279;46.388;8.116;2023-05-07T03:23:04;1.53;;;1.00;;
20241;SDS011;10279;46.388;8.116;2023-05-07T03:25:32;6.43;;;1.10;;
20241;SDS011;10279;46.388;8.116;2023-05-07T03:27:59;1.27;;;1.10;;
20241;SDS011;10279;46.388;8.116;2023-05-07T03:30:27;1.40;;;1.00;;
20241;SDS011;10279;46.388;8.116;2023-05-07T03:32:54;1.13;;;1.00;;
20241;SDS011;10279;46.388;8.116;2023-05-07T03:35:23;0.90;;;0.90;;
20241;SDS011;10279;46.388;8.116;2023-05-07T03:37:50;1.63;;;1.37;;
20241;SDS011;10279;46.388;8.116;2023-05-07T03:40:18;1.17;;;1.00;;
20241;SDS011;10279;46.388;8.116;2023-05-07T03:42:46;0.83;;;0.80;;
20241;SDS011;10279;46.388;8.116;2023-05-07T03:45:13;1.30;;;1.20;;
20241;SDS011;10279;46.388;8.116;2023-05-07T03:47:41;1.77;;;1.10;;
20241;SDS011;10279;46.388;8.116;2023-05-07T03:50:08;1.10;;;1.00;;
20241;SDS011;10279;46.388;8.116;2023-05-07T03:52:40;1.30;;;1.07;;
20241;SDS011;10279;46.388;8.116;2023-05-07T03:55:07;1.43;;;1.20;;
20241;SDS011;10279;46.388;8.116;2023-05-07T03:57:35;1.20;;;1.10;;
20241;SDS011;10279;46.388;8.116;2023-05-07T04:00:02;1.30;;;1.20;;
20241;SDS011;10279;46.388;8.116;2023-05-07T04:02:31;1.20;;;1.10;;
20241;SDS011;10279;46.388;8.116;2023-05-07T04:04:58;1.77;;;1.30;;
20241;SDS011;10279;46.388;8.116;2023-05-07T04:07:26;1.73;;;1.00;;
20241;SDS011;10279;46.388;8.116;2023-05-07T04:09:53;2.73;;;1.30;;
20241;SDS011;10279;46.388;8.116;2023-05-07T04:12:21;1.40;;;0.80;;
20241;SDS011;10279;46.388;8.116;2023-05-07T04:14:48;1.23;;;1.00;;
20241;SDS011;10279;46.388;8.116;2023-05-07T04:17:16;1.73;;;1.20;;
20241;SDS011;10279;46.388;8.116;2023-05-07T04:19:43;3.60;;;1.20;;
20241;SDS011;10279;46.388;8.116;2023-05-07T04:22:12;1.47;;;1.20;;
20241;SDS011;10279;46.388;8.116;2023-05-07T04:24:39;3.43;;;1.40;;
20241;SDS011;10279;46.388;8.116;2023-05-07T04:27:07;3.23;;;1.40;;
20241;SDS011;10279;46.388;8.116;2023-05-07T04:29:34;1.90;;;1.30;;
20241;SDS011;10279;46.388;8.116;2023-05-07T04:32:02;1.27;;;1.17;;
20241;SDS011;10279;46.388;8.116;2023-05-07T04:34:29;1.30;;;1.00;;
20241;SDS011;10279;46.388;8.116;2023-05-07T04:36:58;2.20;;;1.37;;
20241;SDS011;10279;46.388;8.116;2023-05-07T04:39:26;1.57;;;1.23;;
20241;SDS011;10279;46.388;8.116;2023-05-07T04:41:53;1.70;;;1.30;;
20241;SDS011;10279;46.388;8.116;2023-05-07T04:44:20;2.00;;;1.20;;
20241;SDS011;10279;46.388;8.116;2023-05-07T04:46:48;3.00;;;1.30;;
20241;SDS011;10279;46.388;8.116;2023-05-07T04:49:16;2.30;;;1.20;;
20241;SDS011;10279;46.388;8.116;2023-05-07T04:51:43;1.00;;;1.00;;
20241;SDS011;10279;46.388;8.116;2023-05-07T04:54:11;2.17;;;1.10;;
20241;SDS011;10279;46.388;8.116;2023-05-07T04:56:41;2.43;;;0.90;;
20241;SDS011;10279;46.388;8.116;2023-05-07T04:59:08;1.37;;;1.27;;
20241;SDS011;10279;46.388;8.116;2023-05-07T05:01:36;1.77;;;1.00;;
20241;SDS011;10279;46.388;8.116;2023-05-07T05:04:03;1.00;;;1.00;;
20241;SDS011;10279;46.388;8.116;2023-05-07T05:06:31;2.27;;;1.40;;
20241;SDS011;10279;46.388;8.116;2023-05-07T05:08:58;1.97;;;1.30;;
20241;SDS011;10279;46.388;8.116;2023-05-07T05:11:26;2.50;;;1.20;;
20241;SDS011;10279;46.388;8.116;2023-05-07T05:13:53;1.57;;;0.90;;
20241;SDS011;10279;46.388;8.116;2023-05-07T05:16:21;2.33;;;1.53;;
20241;SDS011;10279;46.388;8.116;2023-05-07T05:18:48;3.07;;;1.10;;
20241;SDS011;10279;46.388;8.116;2023-05-07T05:21:17;1.37;;;1.03;;
20241;SDS011;10279;46.388;8.116;2023-05-07T05:23:45;2.20;;;1.47;;
20241;SDS011;10279;46.388;8.116;2023-05-07T05:26:12;2.33;;;1.20;;
20241;SDS011;10279;46.388;8.116;2023-05-07T05:28:43;4.43;;;1.63;;
20241;SDS011;10279;46.388;8.116;2023-05-07T05:31:10;2.37;;;1.23;;
20241;SDS011;10279;46.388;8.116;2023-05-07T05:33:37;1.57;;;1.47;;
20241;SDS011;10279;46.388;8.116;2023-05-07T05:36:05;2.63;;;1.20;;
20241;SDS011;10279;46.388;8.116;2023-05-07T05:38:33;1.53;;;1.10;;
20241;SDS011;10279;46.388;8.116;2023-05-07T05:41:00;1.23;;;1.00;;
20241;SDS011;10279;46.388;8.116;2023-05-07T05:43:27;1.87;;;1.10;;
20241;SDS011;10279;46.388;8.116;2023-05-07T05:45:55;1.00;;;1.00;;
20241;SDS011;10279;46.388;8.116;2023-05-07T05:48:23;1.60;;;1.33;;
20241;SDS011;10279;46.388;8.116;2023-05-07T05:50:50;2.77;;;2.03;;
20241;SDS011;10279;46.388;8.116;2023-05-07T05:53:18;7.77;;;2.93;;
20241;SDS011;10279;46.388;8.116;2023-05-07T05:55:45;4.43;;;2.20;;
20241;SDS011;10279;46.388;8.116;2023-05-07T05:58:13;4.10;;;2.13;;
20241;SDS011;10279;46.388;8.116;2023-05-07T06:00:45;2.17;;;1.60;;
20241;SDS011;10279;46.388;8.116;2023-05-07T06:03:14;3.17;;;2.10;;
20241;SDS011;10279;46.388;8.116;2023-05-07T06:05:42;2.90;;;1.70;;
20241;SDS011;10279;46.388;8.116;2023-05-07T06:08:09;2.10;;;1.60;;
20241;SDS011;10279;46.388;8.116;2023-05-07T06:10:37;2.90;;;1.30;;
20241;SDS011;10279;46.388;8.116;2023-05-07T06:13:04;4.27;;;2.33;;
20241;SDS011;10279;46.388;8.116;2023-05-07T06:15:32;5.77;;;3.27;;
20241;SDS011;10279;46.388;8.116;2023-05-07T06:18:00;6.93;;;3.03;;
20241;SDS011;10279;46.388;8.116;2023-05-07T06:20:27;3.50;;;1.53;;
20241;SDS011;10279;46.388;8.116;2023-05-07T06:22:54;1.40;;;1.30;;
20241;SDS011;10279;46.388;8.116;2023-05-07T06:25:22;2.60;;;1.10;;
20241;SDS011;10279;46.388;8.116;2023-05-07T06:27:49;2.10;;;1.30;;
20241;SDS011;10279;46.388;8.116;2023-05-07T06:30:17;2.70;;;1.37;;
20241;SDS011;10279;46.388;8.116;2023-05-07T06:32:44;1.67;;;1.37;;
20241;SDS011;10279;46.388;8.116;2023-05-07T06:35:12;2.80;;;1.60;;
20241;SDS011;10279;46.388;8.116;2023-05-07T06:37:40;1.40;;;1.00;;
20241;SDS011;10279;46.388;8.116;2023-05-07T06:40:09;1.95;;;1.02;;
20241;SDS011;10279;46.388;8.116;2023-05-07T06:42:37;1.20;;;1.10;;
20241;SDS011;10279;46.388;8.116;2023-05-07T06:45:04;2.45;;;1.23;;
20241;SDS011;10279;46.388;8.116;2023-05-07T06:47:32;0.95;;;0.93;;
20241;SDS011;10279;46.388;8.116;2023-05-07T06:50:00;3.97;;;1.45;;
20241;SDS011;10279;46.388;8.116;2023-05-07T06:52:27;1.63;;;1.10;;
20241;SDS011;10279;46.388;8.116;2023-05-07T06:54:54;1.30;;;1.20;;
20241;SDS011;10279;46.388;8.116;2023-05-07T06:57:22;1.83;;;1.40;;
20241;SDS011;10279;46.388;8.116;2023-05-07T06:59:49;1.63;;;1.47;;
20241;SDS011;10279;46.388;8.116;2023-05-07T07:02:17;2.60;;;1.70;;
20241;SDS011;10279;46.388;8.116;2023-05-07T07:04:44;3.20;;;2.07;;
20241;SDS011;10279;46.388;8.116;2023-05-07T07:07:12;2.23;;;1.80;;
20241;SDS011;10279;46.388;8.116;2023-05-07T07:09:39;2.60;;;2.10;;
20241;SDS011;10279;46.388;8.116;2023-05-07T07:12:07;2.00;;;1.80;;
20241;SDS011;10279;46.388;8.116;2023-05-07T07:14:34;4.83;;;2.07;;
20241;SDS011;10279;46.388;8.116;2023-05-07T07:17:01;3.13;;;2.10;;
20241;SDS011;10279;46.388;8.116;2023-05-07T07:19:29;2.30;;;1.97;;
20241;SDS011;10279;46.388;8.116;2023-05-07T07:21:56;2.87;;;1.93;;
20241;SDS011;10279;46.388;8.116;2023-05-07T07:24:24;2.03;;;1.70;;
20241;SDS011;10279;46.388;8.116;2023-05-07T07:26:51;3.10;;;1.80;;
20241;SDS011;10279;46.388;8.116;2023-05-07T07:29:18;2.50;;;1.50;;
20241;SDS011;10279;46.388;8.116;2023-05-07T07:31:47;2.77;;;1.80;;
20241;SDS011;10279;46.388;8.116;2023-05-07T07:34:15;2.40;;;1.67;;
20241;SDS011;10279;46.388;8.116;2023-05-07T07:36:45;1.93;;;1.70;;
20241;SDS011;10279;46.388;8.116;2023-05-07T07:39:16;2.10;;;1.40;;
20241;SDS011;10279;46.388;8.116;2023-05-07T07:41:43;1.50;;;1.40;;
20241;SDS011;10279;46.388;8.116;2023-05-07T07:44:11;3.57;;;1.67;;
20241;SDS011;10279;46.388;8.116;2023-05-07T07:46:41;1.83;;;1.67;;
20241;SDS011;10279;46.388;8.116;2023-05-07T07:49:09;1.77;;;1.53;;
20241;SDS011;10279;46.388;8.116;2023-05-07T07:51:36;2.47;;;1.63;;
20241;SDS011;10279;46.388;8.116;2023-05-07T07:54:04;3.23;;;1.50;;
20241;SDS011;10279;46.388;8.116;2023-05-07T07:56:32;3.93;;;1.50;;
20241;SDS011;10279;46.388;8.116;2023-05-07T07:59:00;2.83;;;1.83;;
20241;SDS011;10279;46.388;8.116;2023-05-07T08:01:29;1.80;;;1.70;;
20241;SDS011;10279;46.388;8.116;2023-05-07T08:03:57;1.80;;;1.60;;
20241;SDS011;10279;46.388;8.116;2023-05-07T08:06:25;2.13;;;1.67;;
20241;SDS011;10279;46.388;8.116;2023-05-07T08:08:53;2.57;;;1.70;;
20241;SDS011;10279;46.388;8.116;2023-05-07T08:11:20;3.03;;;1.50;;
20241;SDS011;10279;46.388;8.116;2023-05-07T08:13:48;2.40;;;1.50;;
20241;SDS011;10279;46.388;8.116;2023-05-07T08:16:15;3.17;;;1.67;;
20241;SDS011;10279;46.388;8.116;2023-05-07T08:18:43;1.53;;;1.40;;
20241;SDS011;10279;46.388;8.116;2023-05-07T08:21:11;1.60;;;1.50;;
20241;SDS011;10279;46.388;8.116;2023-05-07T08:23:38;2.57;;;1.50;;
20241;SDS011;10279;46.388;8.116;2023-05-07T08:26:05;1.70;;;1.50;;
20241;SDS011;10279;46.388;8.116;2023-05-07T08:28:34;2.10;;;1.90;;
20241;SDS011;10279;46.388;8.116;2023-05-07T08:31:02;5.47;;;1.80;;
20241;SDS011;10279;46.388;8.116;2023-05-07T08:33:29;1.80;;;1.60;;
20241;SDS011;10279;46.388;8.116;2023-05-07T08:35:57;2.30;;;1.80;;
20241;SDS011;10279;46.388;8.116;2023-05-07T08:38:24;1.90;;;1.40;;
20241;SDS011;10279;46.388;8.116;2023-05-07T08:40:52;2.00;;;1.80;;
20241;SDS011;10279;46.388;8.116;2023-05-07T08:43:19;1.75;;;1.50;;
20241;SDS011;10279;46.388;8.116;2023-05-07T08:45:49;1.60;;;1.47;;
20241;SDS011;10279;46.388;8.116;2023-05-07T08:48:16;4.57;;;1.67;;
20241;SDS011;10279;46.388;8.116;2023-05-07T08:50:44;1.50;;;1.40;;
20241;SDS011;10279;46.388;8.116;2023-05-07T08:53:11;1.58;;;1.48;;
20241;SDS011;10279;46.388;8.116;2023-05-07T08:55:39;1.70;;;1.50;;
20241;SDS011;10279;46.388;8.116;2023-05-07T08:58:07;1.63;;;1.53;;
20241;SDS011;10279;46.388;8.116;2023-05-07T09:00:35;1.60;;;1.50;;
20241;SDS011;10279;46.388;8.116;2023-05-07T09:03:03;2.65;;;1.90;;
20241;SDS011;10279;46.388;8.116;2023-05-07T09:05:31;3.28;;;1.85;;
20241;SDS011;10279;46.388;8.116;2023-05-07T09:07:59;3.30;;;1.60;;
20241;SDS011;10279;46.388;8.116;2023-05-07T09:10:26;5.18;;;1.50;;
20241;SDS011;10279;46.388;8.116;2023-05-07T09:12:54;2.88;;;1.70;;
20241;SDS011;10279;46.388;8.116;2023-05-07T09:15:21;2.28;;;1.58;;
20241;SDS011;10279;46.388;8.116;2023-05-07T09:17:49;2.85;;;1.67;;
20241;SDS011;10279;46.388;8.116;2023-05-07T09:20:16;2.95;;;1.70;;
20241;SDS011;10279;46.388;8.116;2023-05-07T09:22:44;2.72;;;1.70;;
20241;SDS011;10279;46.388;8.116;2023-05-07T09:25:11;2.10;;;1.70;;
20241;SDS011;10279;46.388;8.116;2023-05-07T09:27:41;1.85;;;1.70;;
20241;SDS011;10279;46.388;8.116;2023-05-07T09:30:08;1.83;;;1.73;;
20241;SDS011;10279;46.388;8.116;2023-05-07T09:32:36;3.92;;;1.73;;
20241;SDS011;10279;46.388;8.116;2023-05-07T09:35:04;1.90;;;1.80;;
20241;SDS011;10279;46.388;8.116;2023-05-07T09:37:32;1.60;;;1.50;;
20241;SDS011;10279;46.388;8.116;2023-05-07T09:40:00;4.05;;;2.30;;
20241;SDS011;10279;46.388;8.116;2023-05-07T09:42:27;1.70;;;1.58;;
20241;SDS011;10279;46.388;8.116;2023-05-07T09:44:55;2.45;;;1.67;;
20241;SDS011;10279;46.388;8.116;2023-05-07T09:47:23;2.35;;;1.80;;
20241;SDS011;10279;46.388;8.116;2023-05-07T09:49:54;1.88;;;1.52;;
20241;SDS011;10279;46.388;8.116;2023-05-07T09:52:24;2.25;;;1.42;;
20241;SDS011;10279;46.388;8.116;2023-05-07T09:54:59;2.30;;;1.42;;
20241;SDS011;10279;46.388;8.116;2023-05-07T09:57:28;1.70;;;1.60;;
20241;SDS011;10279;46.388;8.116;2023-05-07T09:59:56;4.10;;;1.88;;
20241;SDS011;10279;46.388;8.116;2023-05-07T10:02:25;1.98;;;1.55;;
20241;SDS011;10279;46.388;8.116;2023-05-07T10:04:54;2.47;;;1.52;;
20241;SDS011;10279;46.388;8.116;2023-05-07T10:07:22;1.98;;;1.70;;
20241;SDS011;10279;46.388;8.116;2023-05-07T10:09:50;2.15;;;1.40;;
20241;SDS011;10279;46.388;8.116;2023-05-07T10:12:17;2.45;;;1.77;;
20241;SDS011;10279;46.388;8.116;2023-05-07T10:14:45;2.78;;;1.73;;
20241;SDS011;10279;46.388;8.116;2023-05-07T10:17:15;2.95;;;1.42;;
20241;SDS011;10279;46.388;8.116;2023-05-07T10:19:44;1.95;;;1.70;;
20241;SDS011;10279;46.388;8.116;2023-05-07T10:22:12;2.65;;;1.67;;
20241;SDS011;10279;46.388;8.116;2023-05-07T10:24:41;2.40;;;1.63;;
20241;SDS011;10279;46.388;8.116;2023-05-07T10:27:09;4.05;;;1.60;;
20241;SDS011;10279;46.388;8.116;2023-05-07T10:32:14;3.10;;;1.88;;
20241;SDS011;10279;46.388;8.116;2023-05-07T10:34:47;2.33;;;1.75;;
20241;SDS011;10279;46.388;8.116;2023-05-07T10:37:15;2.83;;;2.03;;
20241;SDS011;10279;46.388;8.116;2023-05-07T10:39:43;2.22;;;1.92;;
20241;SDS011;10279;46.388;8.116;2023-05-07T10:42:12;2.63;;;1.80;;
20241;SDS011;10279;46.388;8.116;2023-05-07T10:44:39;4.10;;;1.75;;
20241;SDS011;10279;46.388;8.116;2023-05-07T10:47:08;1.95;;;1.50;;
20241;SDS011;10279;46.388;8.116;2023-05-07T10:52:13;3.38;;;1.50;;
20241;SDS011;10279;46.388;8.116;2023-05-07T10:54:41;1.50;;;1.40;;
20241;SDS011;10279;46.388;8.116;2023-05-07T10:59:55;5.53;;;1.70;;
20241;SDS011;10279;46.388;8.116;2023-05-07T11:03:04;2.72;;;1.70;;
20241;SDS011;10279;46.388;8.116;2023-05-07T11:05:18;1.63;;;1.52;;
20241;SDS011;10279;46.388;8.116;2023-05-07T11:07:54;2.05;;;1.65;;
20241;SDS011;10279;46.388;8.116;2023-05-07T11:10:23;1.63;;;1.50;;
20241;SDS011;10279;46.388;8.116;2023-05-07T11:13:10;3.15;;;1.48;;
20241;SDS011;10279;46.388;8.116;2023-05-07T11:15:39;1.80;;;1.70;;
20241;SDS011;10279;46.388;8.116;2023-05-07T11:18:08;2.67;;;1.40;;
20241;SDS011;10279;46.388;8.116;2023-05-07T11:26:08;2.33;;;1.35;;
20241;SDS011;10279;46.388;8.116;2023-05-07T11:28:42;1.67;;;1.55;;
20241;SDS011;10279;46.388;8.116;2023-05-07T11:31:10;1.73;;;1.30;;
20241;SDS011;10279;46.388;8.116;2023-05-07T11:33:38;1.85;;;1.30;;
20241;SDS011;10279;46.388;8.116;2023-05-07T11:36:07;1.65;;;1.40;;
20241;SDS011;10279;46.388;8.116;2023-05-07T11:38:35;2.35;;;1.50;;
20241;SDS011;10279;46.388;8.116;2023-05-07T11:41:03;1.27;;;1.17;;
20241;SDS011;10279;46.388;8.116;2023-05-07T11:43:34;4.75;;;2.00;;
20241;SDS011;10279;46.388;8.116;2023-05-07T11:46:08;4.50;;;1.67;;
20241;SDS011;10279;46.388;8.116;2023-05-07T11:48:37;3.10;;;1.60;;
20241;SDS011;10279;46.388;8.116;2023-05-07T11:51:05;2.42;;;1.48;;
20241;SDS011;10279;46.388;8.116;2023-05-07T11:53:36;3.15;;;1.55;;
20241;SDS011;10279;46.388;8.116;2023-05-07T11:56:07;1.52;;;1.40;;
20241;SDS011;10279;46.388;8.116;2023-05-07T11:58:35;1.83;;;1.70;;
20241;SDS011;10279;46.388;8.116;2023-05-07T12:01:03;2.85;;;1.60;;
20241;SDS011;10279;46.388;8.116;2023-05-07T12:03:31;2.15;;;1.45;;
20241;SDS011;10279;46.388;8.116;2023-05-07T12:06:01;2.35;;;1.63;;
20241;SDS011;10279;46.388;8.116;2023-05-07T12:08:29;3.95;;;1.60;;
20241;SDS011;10279;46.388;8.116;2023-05-07T12:10:57;2.95;;;1.80;;
20241;SDS011;10279;46.388;8.116;2023-05-07T12:13:25;1.88;;;1.67;;
20241;SDS011;10279;46.388;8.116;2023-05-07T12:15:53;4.78;;;1.55;;
20241;SDS011;10279;46.388;8.116;2023-05-07T12:18:22;2.00;;;1.63;;
20241;SDS011;10279;46.388;8.116;2023-05-07T12:20:51;2.30;;;1.40;;
20241;SDS011;10279;46.388;8.116;2023-05-07T12:23:21;1.60;;;1.50;;
20241;SDS011;10279;46.388;8.116;2023-05-07T12:25:49;3.75;;;1.80;;
20241;SDS011;10279;46.388;8.116;2023-05-07T12:28:17;1.63;;;1.52;;
20241;SDS011;10279;46.388;8.116;2023-05-07T12:30:45;1.65;;;1.20;;
20241;SDS011;10279;46.388;8.116;2023-05-07T12:33:17;0.95;;;0.95;;
20241;SDS011;10279;46.388;8.116;2023-05-07T12:35:45;2.38;;;1.40;;
20241;SDS011;10279;46.388;8.116;2023-05-07T12:38:15;1.27;;;1.20;;
20241;SDS011;10279;46.388;8.116;2023-05-07T12:40:44;1.48;;;1.30;;
20241;SDS011;10279;46.388;8.116;2023-05-07T12:43:15;1.20;;;1.05;;
20241;SDS011;10279;46.388;8.116;2023-05-07T12:45:44;1.50;;;1.35;;
20241;SDS011;10279;46.388;8.116;2023-05-07T12:48:12;2.55;;;1.63;;
20241;SDS011;10279;46.388;8.116;2023-05-07T12:50:39;2.40;;;1.63;;
20241;SDS011;10279;46.388;8.116;2023-05-07T12:53:07;1.88;;;1.50;;
20241;SDS011;10279;46.388;8.116;2023-05-07T12:55:42;1.50;;;1.40;;
20241;SDS011;10279;46.388;8.116;2023-05-07T12:58:32;1.55;;;1.30;;
20241;SDS011;10279;46.388;8.116;2023-05-07T13:00:59;1.67;;;1.35;;
20241;SDS011;10279;46.388;8.116;2023-05-07T13:03:30;1.52;;;1.30;;
20241;SDS011;10279;46.388;8.116;2023-05-07T13:05:59;1.60;;;1.30;;
20241;SDS011;10279;46.388;8.116;2023-05-07T13:08:28;1.63;;;1.52;;
20241;SDS011;10279;46.388;8.116;2023-05-07T13:10:57;2.40;;;1.70;;
20241;SDS011;10279;46.388;8.116;2023-05-07T13:13:24;2.17;;;1.80;;
20241;SDS011;10279;46.388;8.116;2023-05-07T13:15:54;3.55;;;1.75;;
20241;SDS011;10279;46.388;8.116;2023-05-07T13:18:23;1.80;;;1.33;;
20241;SDS011;10279;46.388;8.116;2023-05-07T13:20:53;2.20;;;1.50;;
20241;SDS011;10279;46.388;8.116;2023-05-07T13:23:21;2.25;;;1.40;;
20241;SDS011;10279;46.388;8.116;2023-05-07T13:25:48;2.55;;;1.20;;
20241;SDS011;10279;46.388;8.116;2023-05-07T13:28:17;2.40;;;1.60;;
20241;SDS011;10279;46.388;8.116;2023-05-07T13:30:44;1.90;;;1.60;;
20241;SDS011;10279;46.388;8.116;2023-05-07T13:33:11;2.80;;;1.38;;
20241;SDS011;10279;46.388;8.116;2023-05-07T13:35:39;2.88;;;1.60;;
20241;SDS011;10279;46.388;8.116;2023-05-07T13:38:06;1.50;;;1.40;;
20241;SDS011;10279;46.388;8.116;2023-05-07T13:40:34;1.65;;;1.50;;
20241;SDS011;10279;46.388;8.116;2023-05-07T13:43:01;2.15;;;1.50;;
20241;SDS011;10279;46.388;8.116;2023-05-07T13:45:29;1.92;;;1.58;;
20241;SDS011;10279;46.388;8.116;2023-05-07T13:47:57;3.08;;;1.60;;
20241;SDS011;10279;46.388;8.116;2023-05-07T13:50:25;3.33;;;1.60;;
20241;SDS011;10279;46.388;8.116;2023-05-07T13:52:56;1.90;;;1.00;;
20241;SDS011;10279;46.388;8.116;2023-05-07T13:55:23;0.80;;;0.80;;
20241;SDS011;10279;46.388;8.116;2023-05-07T13:57:55;0.90;;;0.90;;
20241;SDS011;10279;46.388;8.116;2023-05-07T14:00:23;0.88;;;0.80;;
20241;SDS011;10279;46.388;8.116;2023-05-07T14:02:51;2.03;;;0.80;;
20241;SDS011;10279;46.388;8.116;2023-05-07T14:05:19;1.35;;;0.60;;
20241;SDS011;10279;46.388;8.116;2023-05-07T14:07:47;1.38;;;0.43;;
20241;SDS011;10279;46.388;8.116;2023-05-07T14:10:15;1.27;;;0.30;;
20241;SDS011;10279;46.388;8.116;2023-05-07T14:12:43;0.40;;;0.40;;
20241;SDS011;10279;46.388;8.116;2023-05-07T14:15:11;2.00;;;0.50;;
20241;SDS011;10279;46.388;8.116;2023-05-07T14:17:39;0.38;;;0.35;;
20241;SDS011;10279;46.388;8.116;2023-05-07T14:20:06;0.40;;;0.40;;
20241;SDS011;10279;46.388;8.116;2023-05-07T14:22:34;1.60;;;0.30;;
20241;SDS011;10279;46.388;8.116;2023-05-07T14:25:01;0.80;;;0.43;;
20241;SDS011;10279;46.388;8.116;2023-05-07T14:27:32;2.30;;;0.40;;
20241;SDS011;10279;46.388;8.116;2023-05-07T14:30:00;1.95;;;0.50;;
20241;SDS011;10279;46.388;8.116;2023-05-07T14:32:27;1.25;;;0.40;;
20241;SDS011;10279;46.388;8.116;2023-05-07T14:34:55;0.50;;;0.50;;
20241;SDS011;10279;46.388;8.116;2023-05-07T14:37:23;0.73;;;0.57;;
20241;SDS011;10279;46.388;8.116;2023-05-07T14:39:50;1.23;;;0.50;;
20241;SDS011;10279;46.388;8.116;2023-05-07T14:42:18;0.57;;;0.57;;
20241;SDS011;10279;46.388;8.116;2023-05-07T14:44:45;2.63;;;0.60;;
20241;SDS011;10279;46.388;8.116;2023-05-07T14:47:14;1.13;;;0.35;;
20241;SDS011;10279;46.388;8.116;2023-05-07T14:49:45;1.05;;;0.60;;
20241;SDS011;10279;46.388;8.116;2023-05-07T14:52:12;1.05;;;0.70;;
20241;SDS011;10279;46.388;8.116;2023-05-07T14:54:39;0.80;;;0.60;;
20241;SDS011;10279;46.388;8.116;2023-05-07T14:57:07;1.20;;;0.80;;
20241;SDS011;10279;46.388;8.116;2023-05-07T14:59:37;0.73;;;0.73;;
20241;SDS011;10279;46.388;8.116;2023-05-07T15:02:05;0.60;;;0.57;;
20241;SDS011;10279;46.388;8.116;2023-05-07T15:04:34;0.90;;;0.77;;
20241;SDS011;10279;46.388;8.116;2023-05-07T15:07:02;0.70;;;0.70;;